createdAt,value
2022-09-28T00:01:24.317Z,1.33
2022-09-28T00:03:57.541Z,1.35
2022-09-28T00:06:27.564Z,1.30
2022-09-28T00:08:55.986Z,1.50
2022-09-28T00:11:26.657Z,1.48
2022-09-28T00:13:57.809Z,2.15
2022-09-28T00:16:28.743Z,1.23
2022-09-28T00:18:58.608Z,1.25
2022-09-28T00:21:28.526Z,1.10
2022-09-28T00:24:16.305Z,1.00
2022-09-28T00:26:47.690Z,1.00
2022-09-28T00:29:19.509Z,1.00
2022-09-28T00:31:48.328Z,0.90
2022-09-28T00:34:18.262Z,0.95
2022-09-28T00:36:48.086Z,0.90
2022-09-28T00:39:17.392Z,0.90
2022-09-28T00:41:46.533Z,0.90
2022-09-28T00:44:41.065Z,0.90
2022-09-28T00:47:32.310Z,1.05
2022-09-28T00:50:04.073Z,1.10
2022-09-28T00:55:06.527Z,1.00
2022-09-28T00:57:35.641Z,0.98
2022-09-28T01:00:06.210Z,0.93
2022-09-28T01:02:34.514Z,1.00
2022-09-28T01:05:06.508Z,1.05
2022-09-28T01:07:35.797Z,0.90
2022-09-28T01:10:04.728Z,1.05
2022-09-28T01:12:32.904Z,1.10
2022-09-28T01:15:01.935Z,1.10
2022-09-28T01:17:39.956Z,1.30
2022-09-28T01:20:35.162Z,1.20
2022-09-28T01:23:27.353Z,1.00
2022-09-28T01:26:02.733Z,0.90
2022-09-28T01:28:33.424Z,1.10
2022-09-28T01:31:10.943Z,1.00
2022-09-28T01:33:42.908Z,1.00
2022-09-28T01:36:15.169Z,1.10
2022-09-28T01:38:48.645Z,0.98
2022-09-28T01:41:18.653Z,0.90
2022-09-28T01:43:53.384Z,0.93
2022-09-28T01:46:24.353Z,0.95
2022-09-28T01:48:57.940Z,1.25
2022-09-28T01:51:35.450Z,1.15
2022-09-28T01:54:08.529Z,1.50
2022-09-28T01:56:41.468Z,1.10
2022-09-28T01:59:15.785Z,1.55
2022-09-28T02:01:48.988Z,1.80
2022-09-28T02:04:20.513Z,1.60
2022-09-28T02:06:53.271Z,1.80
2022-09-28T02:09:28.472Z,1.90
2022-09-28T02:12:03.339Z,1.83
2022-09-28T02:14:35.985Z,2.20
2022-09-28T02:17:05.224Z,2.03
2022-09-28T02:19:34.317Z,2.20
2022-09-28T02:22:10.279Z,1.95
2022-09-28T02:24:41.414Z,1.90
2022-09-28T02:27:16.065Z,2.13
2022-09-28T02:29:45.717Z,1.80
2022-09-28T02:32:13.966Z,2.10
2022-09-28T02:34:42.172Z,1.80
2022-09-28T02:37:10.361Z,1.92
2022-09-28T02:39:38.644Z,1.92
2022-09-28T02:42:17.240Z,2.00
2022-09-28T02:44:58.798Z,1.90
2022-09-28T02:47:40.188Z,1.88
2022-09-28T02:50:16.962Z,2.33
2022-09-28T02:53:04.676Z,1.88
2022-09-28T02:55:44.676Z,2.20
2022-09-28T02:58:31.555Z,1.95
2022-09-28T03:01:07.643Z,1.48
2022-09-28T03:03:44.921Z,1.85
2022-09-28T03:06:21.399Z,1.42
2022-09-28T03:08:55.720Z,1.45
2022-09-28T03:11:30.124Z,1.25
2022-09-28T03:13:59.036Z,1.50
2022-09-28T03:16:31.934Z,1.40
2022-09-28T03:19:00.235Z,1.40
2022-09-28T03:21:28.397Z,1.30
2022-09-28T03:23:56.587Z,1.40
2022-09-28T03:26:24.755Z,1.30
2022-09-28T03:28:52.941Z,1.50
2022-09-28T03:31:21.148Z,1.20
2022-09-28T03:33:53.010Z,1.30
2022-09-28T03:36:21.257Z,1.42
2022-09-28T03:38:49.490Z,1.52
2022-09-28T03:41:17.633Z,1.58
2022-09-28T03:43:45.833Z,1.42
2022-09-28T03:46:14.139Z,1.38
2022-09-28T03:48:42.705Z,1.27
2022-09-28T03:51:13.405Z,1.20
2022-09-28T03:53:42.169Z,1.52
2022-09-28T03:56:13.932Z,1.40
2022-09-28T04:01:16.464Z,1.20
2022-09-28T04:03:45.967Z,1.05
2022-09-28T04:06:16.273Z,0.90
2022-09-28T04:08:44.416Z,1.10
2022-09-28T04:11:12.805Z,0.73
2022-09-28T04:13:41.008Z,0.98
2022-09-28T04:16:11.042Z,1.10
2022-09-28T04:18:39.942Z,1.30
2022-09-28T04:21:10.110Z,0.90
2022-09-28T04:23:41.029Z,1.08
2022-09-28T04:26:17.671Z,0.55
2022-09-28T04:29:17.962Z,0.70
2022-09-28T04:31:48.563Z,1.17
2022-09-28T04:34:19.430Z,0.80
2022-09-28T04:36:48.625Z,0.93
2022-09-28T04:39:19.558Z,0.90
2022-09-28T04:41:49.813Z,0.80
2022-09-28T04:44:18.076Z,0.88
2022-09-28T04:46:46.254Z,0.60
2022-09-28T04:49:14.577Z,0.70
2022-09-28T04:51:42.833Z,0.80
2022-09-28T04:54:10.977Z,1.10
2022-09-28T04:56:41.236Z,0.80
2022-09-28T04:59:10.004Z,0.80
2022-09-28T05:01:38.306Z,0.70
2022-09-28T05:04:06.532Z,0.65
2022-09-28T05:06:34.776Z,0.55
2022-09-28T05:09:02.912Z,0.77
2022-09-28T05:11:31.110Z,0.60
2022-09-28T05:14:00.708Z,0.70
2022-09-28T05:16:30.998Z,1.95
2022-09-28T05:18:59.253Z,2.13
2022-09-28T05:21:28.045Z,1.90
2022-09-28T05:23:58.286Z,2.17
2022-09-28T05:26:26.482Z,1.77
2022-09-28T05:28:54.676Z,1.90
2022-09-28T05:31:24.248Z,1.80
2022-09-28T05:33:53.415Z,1.45
2022-09-28T05:36:21.712Z,2.00
2022-09-28T05:38:49.908Z,2.10
2022-09-28T05:41:18.060Z,1.77
2022-09-28T05:43:46.242Z,1.88
2022-09-28T05:46:14.726Z,1.70
2022-09-28T05:48:44.557Z,2.30
2022-09-28T05:51:12.717Z,1.40
2022-09-28T05:53:40.882Z,1.40
2022-09-28T05:56:09.123Z,1.80
2022-09-28T05:58:37.309Z,2.17
2022-09-28T06:01:05.516Z,3.00
2022-09-28T06:03:33.714Z,2.10
2022-09-28T06:06:03.594Z,2.42
2022-09-28T06:08:33.139Z,3.15
2022-09-28T06:11:02.246Z,2.10
2022-09-28T06:13:31.196Z,2.28
2022-09-28T06:15:59.394Z,2.60
2022-09-28T06:18:27.630Z,3.72
2022-09-28T06:20:55.818Z,2.80
2022-09-28T06:23:25.403Z,3.28
2022-09-28T06:25:53.664Z,3.40
2022-09-28T06:28:21.812Z,3.50
2022-09-28T06:30:50.062Z,2.65
2022-09-28T06:33:18.314Z,2.90
2022-09-28T06:35:46.473Z,2.10
2022-09-28T06:38:14.762Z,2.95
2022-09-28T06:40:44.356Z,2.60
2022-09-28T06:43:15.194Z,2.25
2022-09-28T06:45:44.904Z,2.13
2022-09-28T06:48:13.837Z,2.03
2022-09-28T06:50:42.665Z,2.17
2022-09-28T06:53:13.780Z,2.03
2022-09-28T06:55:44.168Z,1.83
2022-09-28T06:58:14.412Z,1.55
2022-09-28T07:00:43.283Z,1.55
2022-09-28T07:03:15.209Z,1.50
2022-09-28T07:05:45.037Z,0.85
2022-09-28T07:08:13.579Z,1.27
2022-09-28T07:10:45.499Z,1.25
2022-09-28T07:13:39.601Z,1.40
2022-09-28T07:16:03.305Z,1.13
2022-09-28T07:18:31.452Z,1.02
2022-09-28T07:20:59.873Z,1.20
2022-09-28T07:23:29.645Z,1.10
2022-09-28T07:25:59.491Z,1.08
2022-09-28T07:28:27.649Z,0.98
2022-09-28T07:30:58.340Z,0.88
2022-09-28T07:33:32.577Z,1.00
2022-09-28T07:36:06.482Z,0.90
2022-09-28T07:38:34.855Z,1.05
2022-09-28T07:41:12.153Z,1.00
2022-09-28T07:43:40.828Z,1.20
2022-09-28T07:46:11.984Z,1.10
2022-09-28T07:48:45.918Z,1.30
2022-09-28T07:51:14.192Z,1.58
2022-09-28T07:53:42.393Z,1.10
2022-09-28T07:56:14.042Z,1.05
2022-09-28T07:58:43.633Z,0.93
2022-09-28T08:01:14.919Z,1.17
2022-09-28T08:03:45.473Z,1.15
2022-09-28T08:06:15.626Z,2.08
2022-09-28T08:08:45.138Z,1.30
2022-09-28T08:11:16.791Z,1.25
2022-09-28T08:13:46.593Z,1.13
2022-09-28T08:16:15.072Z,0.90
2022-09-28T08:18:43.371Z,1.00
2022-09-28T08:21:29.447Z,1.10
2022-09-28T08:23:57.944Z,1.33
2022-09-28T08:26:29.040Z,1.40
2022-09-28T08:28:57.246Z,1.55
2022-09-28T08:31:25.532Z,1.50
2022-09-28T08:33:54.475Z,1.40
2022-09-28T08:36:22.765Z,1.40
2022-09-28T08:38:51.386Z,1.35
2022-09-28T08:41:27.144Z,1.50
2022-09-28T08:44:23.826Z,2.30
2022-09-28T08:46:56.434Z,1.42
2022-09-28T08:49:30.492Z,2.25
2022-09-28T08:52:02.187Z,1.70
2022-09-28T08:54:39.070Z,2.40
2022-09-28T08:57:13.013Z,1.88
2022-09-28T08:59:49.572Z,1.95
2022-09-28T09:02:22.495Z,2.10
2022-09-28T09:04:52.086Z,2.60
2022-09-28T09:07:38.397Z,4.80
2022-09-28T09:10:20.770Z,3.55
2022-09-28T09:12:58.813Z,3.85
2022-09-28T09:15:41.522Z,3.28
2022-09-28T09:18:22.433Z,1.65
2022-09-28T09:20:56.439Z,1.90
2022-09-28T09:23:37.429Z,1.77
2022-09-28T09:26:16.993Z,1.70
2022-09-28T09:29:04.508Z,2.13
2022-09-28T09:31:53.143Z,1.67
2022-09-28T09:34:55.236Z,2.00
2022-09-28T09:37:36.513Z,2.10
2022-09-28T09:40:19.338Z,1.60
2022-09-28T09:43:03.524Z,1.85
2022-09-28T09:45:45.014Z,1.65
2022-09-28T09:48:19.043Z,2.40
2022-09-28T09:50:50.519Z,2.72
2022-09-28T09:53:25.154Z,2.45
2022-09-28T09:55:58.400Z,2.67
2022-09-28T09:58:30.753Z,3.85
2022-09-28T10:01:07.683Z,2.67
2022-09-28T10:03:41.308Z,2.67
2022-09-28T10:06:13.805Z,2.92
2022-09-28T10:08:45.492Z,2.90
2022-09-28T10:11:18.484Z,2.83
2022-09-28T10:13:49.582Z,2.80
2022-09-28T10:16:19.448Z,3.13
2022-09-28T10:18:49.988Z,2.58
2022-09-28T10:21:22.208Z,1.92
2022-09-28T10:23:58.609Z,2.17
2022-09-28T10:26:30.570Z,2.35
2022-09-28T10:29:02.051Z,2.70
2022-09-28T10:31:41.936Z,2.40
2022-09-28T10:34:14.899Z,2.10
2022-09-28T10:36:51.036Z,2.00
2022-09-28T10:39:34.634Z,2.00
2022-09-28T10:42:07.410Z,2.22
2022-09-28T10:44:44.220Z,2.30
2022-09-28T10:47:17.916Z,2.85
2022-09-28T10:49:50.729Z,1.83
2022-09-28T10:52:37.119Z,2.50
2022-09-28T10:55:20.969Z,2.35
2022-09-28T10:57:49.479Z,3.08
2022-09-28T11:00:32.634Z,2.50
2022-09-28T11:03:02.037Z,2.50
2022-09-28T11:05:32.344Z,2.28
2022-09-28T11:08:04.542Z,2.53
2022-09-28T11:10:33.953Z,2.63
2022-09-28T11:13:02.627Z,2.70
2022-09-28T11:15:33.228Z,3.17
2022-09-28T11:18:21.279Z,3.17
2022-09-28T11:20:51.015Z,3.60
2022-09-28T11:23:31.190Z,3.22
2022-09-28T11:26:02.997Z,3.13
2022-09-28T11:28:33.754Z,3.50
2022-09-28T11:31:03.438Z,3.70
2022-09-28T11:33:34.410Z,3.50
2022-09-28T11:36:14.361Z,3.28
2022-09-28T11:38:50.390Z,3.25
2022-09-28T11:41:34.752Z,3.10
2022-09-28T11:44:22.312Z,3.05
2022-09-28T11:46:57.387Z,3.38
2022-09-28T11:49:34.789Z,3.08
2022-09-28T11:52:12.126Z,3.60
2022-09-28T11:54:45.426Z,3.00
2022-09-28T11:57:19.414Z,2.70
2022-09-28T11:59:57.754Z,2.50
2022-09-28T12:02:31.453Z,3.03
2022-09-28T12:05:17.093Z,2.58
2022-09-28T12:07:54.420Z,2.75
2022-09-28T12:10:33.141Z,3.28
2022-09-28T12:13:05.108Z,2.30
2022-09-28T12:16:11.586Z,3.05
2022-09-28T12:18:38.716Z,2.70
2022-09-28T12:21:27.080Z,2.33
2022-09-28T12:24:05.801Z,2.17
2022-09-28T12:26:40.319Z,3.20
2022-09-28T12:29:14.851Z,3.00
2022-09-28T12:31:53.400Z,2.70
2022-09-28T12:34:22.439Z,3.83
2022-09-28T12:37:12.985Z,2.58
2022-09-28T12:39:57.869Z,2.70
2022-09-28T12:42:54.756Z,2.83
2022-09-28T12:45:53.094Z,2.53
2022-09-28T12:48:52.913Z,2.40
2022-09-28T12:51:45.033Z,3.95
2022-09-28T12:54:34.526Z,3.67
2022-09-28T12:57:16.819Z,3.70
2022-09-28T13:00:02.266Z,3.00
2022-09-28T13:03:00.530Z,2.90
2022-09-28T13:06:10.943Z,2.33
2022-09-28T13:08:48.840Z,2.13
2022-09-28T13:11:23.581Z,2.90
2022-09-28T13:14:05.166Z,2.97
2022-09-28T13:16:41.646Z,2.40
2022-09-28T13:19:18.973Z,1.65
2022-09-28T13:21:55.078Z,1.20
2022-09-28T13:24:32.720Z,1.25
2022-09-28T13:27:07.373Z,1.00
2022-09-28T13:32:09.855Z,1.10
2022-09-28T13:34:39.465Z,1.10
2022-09-28T13:37:26.174Z,0.80
2022-09-28T13:39:56.502Z,0.70
2022-09-28T13:42:30.365Z,0.80
2022-09-28T13:45:35.083Z,0.73
2022-09-28T13:48:15.347Z,0.50
2022-09-28T13:51:01.816Z,0.60
2022-09-28T13:53:42.455Z,0.70
2022-09-28T13:56:24.551Z,0.70
2022-09-28T13:58:58.172Z,0.80
2022-09-28T14:01:34.099Z,0.95
2022-09-28T14:04:16.561Z,0.70
2022-09-28T14:06:54.841Z,0.98
2022-09-28T14:09:47.918Z,0.90
2022-09-28T14:12:31.970Z,0.90
2022-09-28T14:15:01.960Z,0.80
2022-09-28T14:17:59.653Z,0.80
2022-09-28T14:20:31.436Z,0.80
2022-09-28T14:23:36.070Z,0.85
2022-09-28T14:26:23.089Z,1.10
2022-09-28T14:29:06.048Z,0.80
2022-09-28T14:31:43.771Z,0.77
2022-09-28T14:34:37.571Z,0.95
2022-09-28T14:37:39.305Z,1.08
2022-09-28T14:40:34.214Z,0.90
2022-09-28T14:43:24.823Z,0.90
2022-09-28T14:46:14.640Z,0.70
2022-09-28T14:48:49.033Z,0.80
2022-09-28T14:51:46.100Z,0.60
2022-09-28T14:54:21.241Z,0.93
2022-09-28T14:57:04.289Z,0.75
2022-09-28T14:59:36.300Z,1.42
2022-09-28T15:02:13.479Z,2.70
2022-09-28T15:04:45.177Z,3.40
2022-09-28T15:07:22.826Z,2.40
2022-09-28T15:09:52.790Z,1.20
2022-09-28T15:12:25.325Z,0.90
2022-09-28T15:14:56.424Z,0.90
2022-09-28T15:17:28.073Z,0.82
2022-09-28T15:22:48.959Z,0.80
2022-09-28T15:25:21.311Z,0.50
2022-09-28T15:27:54.208Z,0.80
2022-09-28T15:30:33.249Z,0.80
2022-09-28T15:33:16.678Z,1.70
2022-09-28T15:35:48.737Z,2.20
2022-09-28T15:38:18.775Z,2.05
2022-09-28T15:40:47.866Z,2.00
2022-09-28T15:43:27.021Z,1.67
2022-09-28T15:46:02.893Z,1.20
2022-09-28T15:48:36.831Z,0.82
2022-09-28T15:51:10.872Z,1.10
2022-09-28T15:53:48.400Z,1.00
2022-09-28T15:56:16.622Z,1.20
2022-09-28T15:58:44.816Z,1.15
2022-09-28T16:01:27.158Z,0.90
2022-09-28T16:03:55.602Z,1.05
2022-09-28T16:06:24.217Z,1.10
2022-09-28T16:08:53.827Z,1.00
2022-09-28T16:11:24.249Z,1.30
2022-09-28T16:14:01.714Z,0.80
2022-09-28T16:16:35.208Z,0.70
2022-09-28T16:19:04.236Z,1.42
2022-09-28T16:21:45.289Z,1.42
2022-09-28T16:24:26.621Z,1.10
2022-09-28T16:27:01.087Z,1.00
2022-09-28T16:29:40.051Z,0.85
2022-09-28T16:32:35.177Z,0.85
2022-09-28T16:35:18.155Z,0.90
2022-09-28T16:37:48.765Z,1.13
2022-09-28T16:40:18.428Z,1.10
2022-09-28T16:42:49.260Z,1.33
2022-09-28T16:45:20.935Z,1.50
2022-09-28T16:47:53.034Z,1.00
2022-09-28T16:50:22.350Z,0.98
2022-09-28T16:53:15.277Z,1.10
2022-09-28T16:55:45.545Z,1.20
2022-09-28T16:58:13.675Z,1.00
2022-09-28T17:00:43.476Z,1.20
2022-09-28T17:03:15.280Z,1.40
2022-09-28T17:05:43.966Z,1.52
2022-09-28T17:08:17.305Z,1.27
2022-09-28T17:11:21.468Z,1.40
2022-09-28T17:13:40.974Z,1.83
2022-09-28T17:16:14.200Z,1.92
2022-09-28T17:18:42.814Z,1.50
2022-09-28T17:21:15.801Z,1.48
2022-09-28T17:23:44.337Z,1.30
2022-09-28T17:26:20.398Z,1.10
2022-09-28T17:28:48.570Z,1.17
2022-09-28T17:31:17.910Z,1.20
2022-09-28T17:33:47.141Z,1.00
2022-09-28T17:36:17.148Z,1.20
2022-09-28T17:38:46.384Z,1.00
2022-09-28T17:41:20.391Z,1.25
2022-09-28T17:43:48.955Z,1.17
2022-09-28T17:46:26.909Z,1.27
2022-09-28T17:48:59.668Z,1.60
2022-09-28T17:51:30.150Z,1.70
2022-09-28T17:53:58.757Z,1.70
2022-09-28T17:56:32.077Z,1.65
2022-09-28T17:59:03.080Z,1.95
2022-09-28T18:01:34.400Z,1.80
2022-09-28T18:06:32.221Z,1.40
2022-09-28T18:09:00.582Z,1.40
2022-09-28T18:11:30.399Z,1.45
2022-09-28T18:13:58.627Z,3.47
2022-09-28T18:16:27.988Z,3.70
2022-09-28T18:18:56.362Z,3.35
2022-09-28T18:21:24.610Z,2.53
2022-09-28T18:23:52.803Z,2.72
2022-09-28T18:26:20.979Z,6.22
2022-09-28T18:28:54.602Z,6.70
2022-09-28T18:31:22.799Z,3.95
2022-09-28T18:33:51.018Z,3.97
2022-09-28T18:36:19.155Z,4.45
2022-09-28T18:38:47.358Z,4.18
2022-09-28T18:41:16.644Z,5.22
2022-09-28T18:43:50.670Z,9.57
2022-09-28T18:46:19.463Z,7.25
2022-09-28T18:48:48.321Z,5.53
2022-09-28T18:51:16.467Z,4.20
2022-09-28T18:53:44.623Z,6.50
2022-09-28T18:56:14.787Z,6.07
2022-09-28T18:58:44.044Z,6.63
2022-09-28T19:01:31.716Z,7.43
2022-09-28T19:04:01.434Z,7.85
2022-09-28T19:06:29.818Z,7.03
2022-09-28T19:08:58.743Z,7.13
2022-09-28T19:11:27.381Z,6.05
2022-09-28T19:13:56.494Z,5.15
2022-09-28T19:16:28.431Z,4.78
2022-09-28T19:18:57.604Z,3.67
2022-09-28T19:21:27.140Z,3.97
2022-09-28T19:23:55.729Z,3.55
2022-09-28T19:26:25.469Z,4.60
2022-09-28T19:28:53.920Z,4.75
2022-09-28T19:31:22.629Z,5.10
2022-09-28T19:33:52.182Z,5.35
2022-09-28T19:36:23.738Z,4.63
2022-09-28T19:38:52.990Z,3.65
2022-09-28T19:41:39.498Z,3.83
2022-09-28T19:44:15.772Z,4.20
2022-09-28T19:46:44.234Z,4.82
2022-09-28T19:49:19.397Z,5.28
2022-09-28T19:52:11.627Z,6.00
2022-09-28T19:54:38.205Z,5.93
2022-09-28T19:57:07.957Z,5.20
2022-09-28T19:59:37.152Z,5.07
2022-09-28T20:02:05.875Z,4.53
2022-09-28T20:04:35.758Z,4.95
2022-09-28T20:07:04.456Z,4.60
2022-09-28T20:09:33.125Z,4.97
2022-09-28T20:12:01.465Z,4.50
2022-09-28T20:14:34.021Z,3.97
2022-09-28T20:17:04.905Z,3.40
2022-09-28T20:19:33.622Z,4.07
2022-09-28T20:22:03.492Z,2.80
2022-09-28T20:24:32.278Z,2.60
2022-09-28T20:27:01.342Z,2.33
2022-09-28T20:29:31.718Z,1.70
2022-09-28T20:32:00.440Z,1.80
2022-09-28T20:34:28.820Z,1.75
2022-09-28T20:36:57.024Z,1.70
2022-09-28T20:39:26.880Z,1.50
2022-09-28T20:41:55.607Z,1.10
2022-09-28T20:44:23.791Z,1.40
2022-09-28T20:46:52.363Z,1.10
2022-09-28T20:49:20.508Z,0.95
2022-09-28T20:51:48.669Z,0.90
2022-09-28T20:54:16.932Z,0.90
2022-09-28T20:56:48.270Z,0.80
2022-09-28T20:59:16.584Z,0.90
2022-09-28T21:01:44.814Z,0.80
2022-09-28T21:04:13.194Z,0.80
2022-09-28T21:06:43.252Z,0.80
2022-09-28T21:09:12.717Z,0.82
2022-09-28T21:11:41.706Z,0.70
2022-09-28T21:14:11.401Z,0.65
2022-09-28T21:16:40.019Z,0.65
2022-09-28T21:19:08.197Z,1.02
2022-09-28T21:21:36.398Z,1.40
2022-09-28T21:24:05.023Z,1.80
2022-09-28T21:26:33.507Z,2.72
2022-09-28T21:29:02.996Z,2.55
2022-09-28T21:31:34.305Z,0.90
2022-09-28T21:34:04.656Z,1.73
2022-09-28T21:36:33.705Z,1.45
2022-09-28T21:39:01.916Z,0.70
2022-09-28T21:41:30.058Z,1.10
2022-09-28T21:43:58.364Z,0.70
2022-09-28T21:46:26.811Z,0.60
2022-09-28T21:48:56.444Z,0.95
2022-09-28T21:51:24.606Z,1.30
2022-09-28T21:53:54.269Z,1.63
2022-09-28T21:56:23.136Z,0.70
2022-09-28T21:58:51.836Z,0.35
2022-09-28T22:01:21.645Z,0.40
2022-09-28T22:03:51.643Z,0.50
2022-09-28T22:06:23.295Z,0.40
2022-09-28T22:08:51.896Z,0.38
2022-09-28T22:11:22.146Z,0.28
2022-09-28T22:13:52.507Z,0.45
2022-09-28T22:16:22.169Z,0.50
2022-09-28T22:18:50.913Z,0.30
2022-09-28T22:21:21.650Z,0.50
2022-09-28T22:23:51.288Z,0.40
2022-09-28T22:26:21.632Z,0.40
2022-09-28T22:28:51.737Z,0.60
2022-09-28T22:31:21.830Z,1.08
2022-09-28T22:33:50.074Z,1.20
2022-09-28T22:36:19.108Z,0.80
2022-09-28T22:38:48.954Z,0.63
2022-09-28T22:41:20.931Z,0.70
2022-09-28T22:43:49.762Z,0.70
2022-09-28T22:46:19.550Z,0.57
2022-09-28T22:48:48.301Z,0.68
2022-09-28T22:51:16.984Z,0.60
2022-09-28T22:53:45.650Z,0.65
2022-09-28T22:56:18.790Z,0.82
2022-09-28T22:58:47.922Z,0.70
2022-09-28T23:01:18.564Z,0.60
2022-09-28T23:03:47.183Z,0.98
2022-09-28T23:06:17.161Z,0.82
2022-09-28T23:08:47.322Z,0.90
2022-09-28T23:11:17.566Z,1.40
2022-09-28T23:13:51.113Z,1.50
2022-09-28T23:16:20.041Z,1.27
2022-09-28T23:18:49.259Z,0.98
2022-09-28T23:21:19.145Z,0.90
2022-09-28T23:23:52.229Z,0.70
2022-09-28T23:26:23.921Z,0.80
2022-09-28T23:28:52.741Z,0.90
2022-09-28T23:31:23.375Z,0.90
2022-09-28T23:33:51.986Z,0.88
2022-09-28T23:36:20.170Z,1.00
2022-09-28T23:38:48.627Z,0.70
2022-09-28T23:41:16.760Z,0.80
2022-09-28T23:43:46.418Z,0.90
2022-09-28T23:46:19.619Z,0.70
2022-09-28T23:48:48.593Z,0.75
2022-09-28T23:51:16.801Z,0.52
2022-09-28T23:53:44.983Z,0.57
2022-09-28T23:56:14.431Z,0.68
2022-09-28T23:58:42.797Z,0.60
